Time;durP1;ratioP1;P1;durP2;ratioP2;P2;SDS_P1;SDS_P2;PMS_P1;PMS_P2;Temp;Humidity;BMP_temperature;BMP_pressure;BME280_temperature;BME280_humidity;BME280_pressure;Samples;Min_cycle;Max_cycle;Signal;HPM_P1;HPM_P2
2022/10/03 00:01:51;;;;;;;;;5.60;4.00;;;;;20.17;46.92;99285.50;5050201;28;8905;-80
2022/10/03 00:04:42;;;;;;;;;4.40;4.40;;;;;19.98;47.62;99290.75;5057630;28;8869;-80
2022/10/03 00:07:29;;;;;;;;;4.00;4.00;;;;;19.90;47.89;99298.13;5053322;28;8984;-79
2022/10/03 00:10:08;;;;;;;;;2.60;1.60;;;;;19.85;48.14;99294.84;5084746;28;8840;-78
2022/10/03 00:12:48;;;;;;;;;4.00;4.00;;;;;19.79;48.14;99295.97;5078984;28;8855;-79
2022/10/03 00:15:25;;;;;;;;;3.40;3.40;;;;;19.83;48.37;99292.25;5109520;28;8851;-80
2022/10/03 00:18:03;;;;;;;;;4.00;4.00;;;;;19.82;48.54;99294.97;5090967;28;8866;-79
2022/10/03 00:20:46;;;;;;;;;5.00;4.00;;;;;19.82;48.50;99294.97;5061636;28;8844;-79
2022/10/03 00:23:22;;;;;;;;;3.80;3.80;;;;;19.73;48.43;99292.69;5065948;28;8898;-78
2022/10/03 00:25:58;;;;;;;;;3.20;3.20;;;;;19.91;47.87;99297.22;5016256;28;8867;-82
2022/10/03 00:28:54;;;;;;;;;3.40;2.40;;;;;19.97;47.85;99296.94;5049723;28;8864;-79
2022/10/03 00:31:35;;;;;;;;;2.00;2.00;;;;;19.94;47.54;99285.63;5048086;28;8868;-79
2022/10/03 00:34:15;;;;;;;;;3.00;3.00;;;;;19.92;47.07;99287.47;5066274;28;8844;-78
2022/10/03 00:36:50;;;;;;;;;2.80;2.80;;;;;19.94;46.99;99281.19;5055871;28;9613;-80
2022/10/03 00:39:36;;;;;;;;;2.00;1.80;;;;;19.80;47.41;99270.34;5066183;28;8864;-79
2022/10/03 00:42:56;;;;;;;;;2.00;2.00;;;;;20.02;47.35;99273.78;5065241;28;8917;-78
2022/10/03 00:46:06;;;;;;;;;2.80;2.80;;;;;19.92;46.84;99271.59;5065826;28;8925;-78
2022/10/03 00:49:11;;;;;;;;;3.00;2.20;;;;;19.82;46.75;99272.00;5059317;28;8861;-79
2022/10/03 00:51:51;;;;;;;;;1.60;1.60;;;;;19.82;46.88;99282.59;5034113;28;8875;-79
2022/10/03 00:54:44;;;;;;;;;1.80;1.60;;;;;19.91;46.47;99294.56;5071979;28;8862;-79
2022/10/03 00:57:29;;;;;;;;;1.40;1.40;;;;;19.98;46.45;99301.31;5075634;28;8868;-78
2022/10/03 01:00:13;;;;;;;;;0.00;0.00;;;;;20.04;47.30;99316.94;5062221;28;8987;-79
2022/10/03 01:02:53;;;;;;;;;2.00;2.00;;;;;20.00;47.01;99331.22;5040554;28;8853;-78
2022/10/03 01:05:36;;;;;;;;;3.00;3.00;;;;;19.81;49.66;99341.75;5073157;28;8844;-79
2022/10/03 01:08:32;;;;;;;;;5.60;5.20;;;;;19.52;52.15;99357.91;5073591;28;9068;-79
2022/10/03 01:11:11;;;;;;;;;5.20;5.20;;;;;19.41;54.12;99348.63;5073321;28;8830;-78
2022/10/03 01:13:56;;;;;;;;;9.40;9.40;;;;;19.21;56.19;99352.06;5066099;28;8852;-78
2022/10/03 01:16:36;;;;;;;;;5.60;4.60;;;;;19.37;56.38;99349.66;5049417;28;8874;-80
2022/10/03 01:19:29;;;;;;;;;5.80;5.20;;;;;19.28;56.73;99361.47;5023188;28;8868;-79
2022/10/03 01:22:17;;;;;;;;;9.00;9.00;;;;;19.39;56.85;99344.31;4992349;28;8864;-77
2022/10/03 01:24:53;;;;;;;;;6.00;5.60;;;;;19.42;57.42;99347.69;4990925;28;8898;-80
2022/10/03 01:27:32;;;;;;;;;5.60;5.60;;;;;19.39;57.54;99346.94;5008815;28;8879;-79
2022/10/03 01:30:22;;;;;;;;;6.80;6.80;;;;;19.42;57.68;99344.19;5047106;28;8887;-79
2022/10/03 01:32:57;;;;;;;;;8.00;7.40;;;;;19.32;58.00;99337.53;5046468;28;8918;-79
2022/10/03 01:35:39;;;;;;;;;7.40;7.40;;;;;19.22;58.31;99335.25;5047015;28;9679;-79
2022/10/03 01:38:20;;;;;;;;;9.20;8.20;;;;;19.27;58.91;99332.44;5063194;28;8986;-78
2022/10/03 01:40:59;;;;;;;;;5.60;5.60;;;;;19.09;58.93;99328.72;5046667;28;8989;-77
2022/10/03 01:43:37;;;;;;;;;6.80;6.00;;;;;18.95;59.38;99320.50;5047169;28;8856;-76
2022/10/03 01:46:16;;;;;;;;;5.80;5.80;;;;;18.97;59.78;99316.84;5062860;28;8880;-78
2022/10/03 01:48:54;;;;;;;;;7.00;7.00;;;;;18.94;60.36;99316.09;5061102;28;8860;-77
2022/10/03 01:51:29;;;;;;;;;6.40;6.40;;;;;18.76;60.51;99322.94;5115327;27;8859;-77
2022/10/03 01:54:07;;;;;;;;;6.80;6.60;;;;;18.81;60.49;99342.13;5103479;27;8890;-77
2022/10/03 01:56:41;;;;;;;;;4.40;4.40;;;;;18.82;60.31;99334.16;5120501;27;9089;-77
2022/10/03 01:59:18;;;;;;;;;5.80;4.00;;;;;18.73;61.18;99349.47;5126363;27;8953;-79
2022/10/03 02:01:53;;;;;;;;;6.40;6.40;;;;;18.74;61.35;99357.34;5119409;27;8845;-79
2022/10/03 02:04:37;;;;;;;;;3.00;3.00;;;;;18.74;61.63;99369.69;5093828;27;8904;-79
2022/10/03 02:07:16;;;;;;;;;5.60;5.60;;;;;18.73;61.70;99368.81;5120194;27;8849;-79
2022/10/03 02:09:57;;;;;;;;;6.00;6.00;;;;;18.73;61.87;99373.22;5075147;28;9172;-78
2022/10/03 02:12:33;;;;;;;;;6.00;6.00;;;;;18.56;62.45;99371.19;5033637;28;9671;-80
2022/10/03 02:15:14;;;;;;;;;5.80;5.00;;;;;18.36;63.19;99377.22;5057666;28;9056;-78
2022/10/03 02:17:53;;;;;;;;;4.40;4.40;;;;;18.07;64.60;99385.22;5001780;28;8871;-77
2022/10/03 02:20:34;;;;;;;;;5.80;5.00;;;;;17.98;65.12;99396.09;5031669;28;8987;-77
2022/10/03 02:23:14;;;;;;;;;3.00;3.00;;;;;17.68;65.82;99409.31;5046711;28;8891;-78
2022/10/03 02:25:58;;;;;;;;;4.20;4.20;;;;;17.50;66.98;99401.97;5055819;28;8850;-77
2022/10/03 02:28:57;;;;;;;;;5.20;5.00;;;;;17.40;68.22;99411.94;5058309;28;8834;-78
2022/10/03 02:31:55;;;;;;;;;5.60;5.00;;;;;17.28;68.25;99415.84;5054777;28;8890;-78
2022/10/03 02:35:01;;;;;;;;;6.00;5.60;;;;;17.09;69.32;99426.06;5035160;28;9665;-77
2022/10/03 02:37:52;;;;;;;;;6.00;6.00;;;;;17.30;68.49;99424.56;5056510;28;8850;-78
2022/10/03 02:40:36;;;;;;;;;5.60;5.20;;;;;17.31;68.85;99412.22;5043296;28;8846;-78
2022/10/03 02:43:59;;;;;;;;;5.20;4.80;;;;;17.56;67.21;99409.72;5077438;28;8878;-78
2022/10/03 02:47:12;;;;;;;;;4.00;4.00;;;;;17.69;67.44;99421.59;5013931;28;8865;-76
2022/10/03 02:50:13;;;;;;;;;3.80;3.80;;;;;17.50;67.81;99407.25;4987046;28;8852;-79
2022/10/03 02:53:13;;;;;;;;;3.00;3.00;;;;;17.62;67.57;99413.94;4948645;28;8869;-77
2022/10/03 02:56:24;;;;;;;;;2.80;2.80;;;;;17.57;67.86;99415.84;4933105;28;9926;-79
2022/10/03 02:59:24;;;;;;;;;2.60;2.60;;;;;17.74;67.33;99429.34;4894898;29;8858;-79
2022/10/03 03:02:14;;;;;;;;;4.80;3.80;;;;;17.63;67.61;99423.56;4895509;29;8920;-79
2022/10/03 03:05:18;;;;;;;;;4.00;4.00;;;;;17.73;67.42;99435.53;4894827;29;8866;-79
2022/10/03 03:08:24;;;;;;;;;3.60;3.60;;;;;17.64;67.75;99443.75;4908248;29;8935;-78
2022/10/03 03:11:09;;;;;;;;;3.40;3.40;;;;;17.67;67.77;99447.13;4823985;29;8894;-79
2022/10/03 03:21:18;;;;;;;;;6.00;4.00;;;;;17.73;67.58;99446.06;4765658;29;8877;-78
2022/10/03 03:29:37;;;;;;;;;3.00;3.00;;;;;18.07;66.87;99443.28;4788376;29;8898;-76
2022/10/03 03:32:18;;;;;;;;;2.40;2.20;;;;;18.21;66.66;99432.25;4835327;29;8878;-77
2022/10/03 03:34:59;;;;;;;;;3.00;3.00;;;;;18.31;66.71;99443.34;4840694;29;8914;-78
2022/10/03 03:37:36;;;;;;;;;4.40;3.40;;;;;18.26;66.07;99438.25;4853548;29;8852;-78
2022/10/03 03:40:31;;;;;;;;;3.00;3.00;;;;;18.38;66.42;99433.47;4853410;29;8898;-78
2022/10/03 03:43:39;;;;;;;;;4.40;4.40;;;;;18.47;66.78;99427.88;4853671;29;8875;-77
2022/10/03 03:46:21;;;;;;;;;9.20;8.60;;;;;17.88;67.80;99434.22;4837006;29;8876;-77
2022/10/03 03:49:20;;;;;;;;;8.00;8.00;;;;;18.05;67.35;99431.91;4871445;29;8912;-77
2022/10/03 03:52:01;;;;;;;;;5.40;4.20;;;;;18.18;67.57;99440.25;4839348;29;8865;-78
2022/10/03 03:54:52;;;;;;;;;6.60;6.60;;;;;18.07;67.40;99434.47;4873066;29;10199;-77
2022/10/03 03:57:51;;;;;;;;;7.00;5.20;;;;;18.20;67.39;99429.66;4894574;29;9177;-77
2022/10/03 04:00:30;;;;;;;;;6.40;6.40;;;;;18.21;66.81;99448.09;4902967;28;9746;-77
2022/10/03 04:03:14;;;;;;;;;13.00;13.00;;;;;17.66;68.72;99448.06;4972229;28;9091;-77
2022/10/03 04:06:04;;;;;;;;;12.80;11.20;;;;;17.87;68.18;99432.50;5006731;28;8866;-78
2022/10/03 04:09:02;;;;;;;;;6.00;6.00;;;;;17.96;67.99;99426.03;5014442;28;8864;-77
2022/10/03 04:11:44;;;;;;;;;8.80;8.60;;;;;18.10;68.21;99429.97;5009995;28;8856;-77
2022/10/03 04:14:38;;;;;;;;;6.80;6.00;;;;;18.28;67.42;99432.91;5009823;28;8883;-78
2022/10/03 04:20:21;;;;;;;;;8.00;6.60;;;;;17.90;68.18;99430.63;5022177;28;8872;-79
2022/10/03 04:23:03;;;;;;;;;9.00;8.00;;;;;17.93;68.17;99434.94;5006757;28;8846;-80
2022/10/03 04:25:53;;;;;;;;;7.60;7.60;;;;;17.66;69.02;99442.78;4958804;28;8897;-78
2022/10/03 04:28:49;;;;;;;;;8.60;8.60;;;;;17.90;68.27;99437.66;5015983;28;8927;-78
2022/10/03 04:31:37;;;;;;;;;34.60;31.00;;;;;18.03;68.22;99440.78;5056189;28;8947;-78
2022/10/03 04:34:21;;;;;;;;;19.00;17.60;;;;;18.11;67.88;99441.41;5113915;27;8833;-78
2022/10/03 04:37:23;;;;;;;;;9.60;8.60;;;;;17.33;70.41;99437.66;5129951;27;8849;-78
2022/10/03 04:40:07;;;;;;;;;31.00;27.00;;;;;17.51;69.57;99435.34;5112072;27;8838;-78
2022/10/03 04:42:50;;;;;;;;;18.00;15.80;;;;;17.65;69.17;99448.09;5111134;27;8992;-78
2022/10/03 04:45:35;;;;;;;;;12.40;10.80;;;;;17.70;68.89;99456.75;5111269;27;8845;-78
2022/10/03 04:48:16;;;;;;;;;9.20;8.60;;;;;17.17;70.02;99465.34;5129870;27;8849;-78
2022/10/03 04:50:59;;;;;;;;;9.40;9.40;;;;;16.72;72.42;99473.59;5111623;27;8905;-79
2022/10/03 04:53:42;;;;;;;;;8.80;7.20;;;;;16.63;72.89;99477.31;5117434;27;8843;-79
2022/10/03 04:56:24;;;;;;;;;8.00;7.40;;;;;16.71;73.17;99469.22;5099623;27;8839;-79
2022/10/03 04:59:03;;;;;;;;;8.00;6.80;;;;;16.77;73.03;99469.94;5117326;27;8875;-78
2022/10/03 05:01:39;;;;;;;;;8.00;7.00;;;;;17.05;72.19;99470.97;5117487;27;8853;-81
2022/10/03 05:04:25;;;;;;;;;10.20;9.00;;;;;16.84;72.94;99482.97;5115787;27;8854;-78
2022/10/03 05:07:05;;;;;;;;;5.40;5.40;;;;;16.77;73.39;99476.97;5118789;27;8856;-80
2022/10/03 05:09:39;;;;;;;;;6.60;6.60;;;;;16.88;72.69;99485.47;5063654;28;8875;-80
2022/10/03 05:12:19;;;;;;;;;11.20;9.00;;;;;17.02;72.13;99489.50;5062684;28;8875;-80
2022/10/03 05:15:00;;;;;;;;;8.80;8.80;;;;;17.13;71.69;99485.66;5062046;28;9695;-80
2022/10/03 05:17:39;;;;;;;;;3.60;3.60;;;;;16.93;72.45;99488.84;5063795;28;8876;-79
2022/10/03 05:20:26;;;;;;;;;11.40;9.40;;;;;17.10;72.36;99501.53;5063647;28;8970;-80
2022/10/03 05:23:04;;;;;;;;;12.00;10.80;;;;;17.26;71.99;99502.00;5063574;28;8855;-80
2022/10/03 05:25:45;;;;;;;;;8.00;8.00;;;;;17.21;72.08;99489.84;5063881;28;8860;-81
2022/10/03 05:28:25;;;;;;;;;6.80;5.80;;;;;17.38;70.72;99494.63;5061789;28;8840;-79
2022/10/03 05:31:02;;;;;;;;;7.20;6.00;;;;;16.89;72.39;99496.88;5045737;28;8929;-81
2022/10/03 05:33:44;;;;;;;;;9.20;7.00;;;;;17.05;72.57;99498.19;5063833;28;8864;-78
2022/10/03 05:36:26;;;;;;;;;6.60;6.60;;;;;17.18;71.27;99498.69;5064675;28;8832;-79
2022/10/03 05:39:33;;;;;;;;;6.40;6.00;;;;;17.15;71.17;99498.78;5028205;28;8874;-80
2022/10/03 05:42:23;;;;;;;;;6.40;6.40;;;;;17.22;70.92;99503.00;5008541;28;8868;-81
2022/10/03 05:45:03;;;;;;;;;5.80;5.80;;;;;17.30;70.56;99514.16;5026258;28;8848;-77
2022/10/03 05:47:47;;;;;;;;;7.00;7.00;;;;;17.06;70.88;99517.50;4999893;28;8945;-80
2022/10/03 05:50:56;;;;;;;;;7.00;7.00;;;;;17.05;72.04;99521.91;5023729;28;8848;-81
2022/10/03 05:54:18;;;;;;;;;6.00;6.00;;;;;17.36;70.95;99521.03;4967474;28;8979;-80
2022/10/03 05:57:12;;;;;;;;;6.00;6.00;;;;;17.44;70.63;99512.91;4925469;29;8864;-79
2022/10/03 06:00:05;;;;;;;;;6.60;6.00;;;;;17.32;71.13;99508.84;4910148;29;8892;-81
2022/10/03 06:03:06;;;;;;;;;6.00;5.20;;;;;17.13;71.79;99514.63;4903402;29;9027;-81
2022/10/03 06:05:51;;;;;;;;;7.00;7.00;;;;;17.30;71.40;99508.03;4908233;29;8938;-79
2022/10/03 06:08:51;;;;;;;;;7.00;7.00;;;;;17.18;71.30;99524.19;4907153;29;8875;-79
2022/10/03 06:11:37;;;;;;;;;5.00;5.00;;;;;17.14;72.04;99519.03;4893779;29;8993;-78
2022/10/03 06:14:24;;;;;;;;;7.00;7.00;;;;;16.25;75.81;99537.06;4909112;29;8945;-80
2022/10/03 06:17:02;;;;;;;;;6.00;6.00;;;;;16.22;76.72;99537.16;4923434;29;8888;-78
2022/10/03 06:19:49;;;;;;;;;7.20;7.20;;;;;16.58;75.57;99545.06;4950700;28;8959;-80
2022/10/03 06:23:05;;;;;;;;;5.20;5.20;;;;;15.96;77.85;99543.00;4987558;28;8862;-82
2022/10/03 06:26:09;;;;;;;;;6.00;5.40;;;;;15.44;81.31;99554.59;4988812;28;8997;-81
2022/10/03 06:29:14;;;;;;;;;7.40;7.40;;;;;15.35;82.02;99561.78;5005020;28;8904;-80
2022/10/03 06:32:21;;;;;;;;;6.20;6.20;;;;;15.18;83.14;99556.84;5097845;27;9623;-80
2022/10/03 06:35:14;;;;;;;;;8.80;8.80;;;;;15.47;82.13;99546.66;5084247;27;8970;-79
2022/10/03 06:38:24;;;;;;;;;5.80;5.80;;;;;15.30;81.90;99560.16;5025955;28;8896;-81
2022/10/03 06:41:31;;;;;;;;;6.20;6.00;;;;;15.30;82.57;99562.78;5074365;28;8866;-76
2022/10/03 06:44:19;;;;;;;;;12.80;11.00;;;;;15.21;82.63;99567.28;5007817;28;8843;-77
2022/10/03 06:47:17;;;;;;;;;15.60;14.40;;;;;15.31;83.51;99575.00;4978055;28;8855;-78
2022/10/03 06:50:18;;;;;;;;;9.60;7.20;;;;;15.42;82.36;99573.03;4970761;28;8855;-77
2022/10/03 06:53:15;;;;;;;;;8.20;6.80;;;;;15.46;80.85;99573.84;4953237;28;8886;-78
2022/10/03 06:56:08;;;;;;;;;8.60;7.60;;;;;15.78;79.63;99568.81;4909316;29;8877;-77
2022/10/03 06:59:09;;;;;;;;;7.20;7.20;;;;;15.74;80.24;99561.03;4910871;29;8880;-77
2022/10/03 07:01:58;;;;;;;;;10.80;9.80;;;;;16.06;79.20;99569.97;4894862;29;8884;-79
2022/10/03 07:04:56;;;;;;;;;7.40;6.40;;;;;16.02;79.11;99565.69;4892218;29;8879;-77
2022/10/03 07:07:55;;;;;;;;;12.00;11.60;;;;;16.27;78.45;99565.97;4835939;29;8955;-79
2022/10/03 07:10:39;;;;;;;;;7.80;7.20;;;;;15.74;80.59;99569.75;4820921;29;8903;-79
2022/10/03 07:13:31;;;;;;;;;7.20;7.20;;;;;15.86;81.25;99575.66;4806938;29;8876;-79
2022/10/03 07:16:35;;;;;;;;;7.20;7.20;;;;;16.06;80.43;99570.81;4791803;29;8909;-81
2022/10/03 07:19:20;;;;;;;;;9.40;8.40;;;;;16.02;77.08;99586.72;4783778;29;9094;-80
2022/10/03 07:25:42;;;;;;;;;9.40;9.00;;;;;16.10;77.77;99585.63;4817034;29;8910;-77
2022/10/03 07:28:39;;;;;;;;;9.00;9.00;;;;;16.19;76.27;99581.94;4872090;29;8958;-77
2022/10/03 07:31:22;;;;;;;;;6.80;6.40;;;;;15.92;75.85;99586.94;4844802;29;9633;-76
2022/10/03 07:34:26;;;;;;;;;6.00;6.00;;;;;15.85;77.59;99590.56;4933008;28;9626;-75
2022/10/03 07:40:34;;;;;;;;;16.00;14.00;;;;;16.27;76.62;99593.16;4947945;28;9026;-79
2022/10/03 07:43:50;;;;;;;;;10.20;9.20;;;;;16.27;75.82;99598.41;4947202;28;8879;-73
2022/10/03 07:46:52;;;;;;;;;13.00;12.00;;;;;16.27;77.09;99610.72;4967067;28;8870;-78
2022/10/03 07:49:52;;;;;;;;;7.80;7.20;;;;;15.97;77.92;99614.00;4967853;28;10228;-73
2022/10/03 07:52:57;;;;;;;;;0.40;0.40;;;;;16.18;76.59;99603.88;4963451;28;8873;-74
2022/10/03 07:55:35;;;;;;;;;10.60;10.60;;;;;16.42;74.38;99599.81;4893748;28;8876;-73
2022/10/03 07:58:36;;;;;;;;;10.20;10.20;;;;;16.07;74.67;99609.41;4949164;28;8874;-73
2022/10/03 08:01:30;;;;;;;;;5.40;4.60;;;;;16.09;73.94;99604.97;4940230;28;9000;-75
2022/10/03 08:04:35;;;;;;;;;9.80;9.60;;;;;16.25;73.72;99602.84;4892335;29;9663;-75
2022/10/03 08:07:22;;;;;;;;;6.20;6.20;;;;;16.32;73.79;99604.44;4812617;29;9218;-74
2022/10/03 08:10:15;;;;;;;;;4.80;4.80;;;;;16.33;72.66;99610.56;4823605;29;8928;-74
2022/10/03 08:13:14;;;;;;;;;8.80;7.60;;;;;16.62;73.21;99603.75;4834794;29;9719;-74
2022/10/03 08:15:58;;;;;;;;;5.40;5.00;;;;;16.81;72.52;99604.19;4819105;29;8906;-73
2022/10/03 08:18:53;;;;;;;;;8.20;7.80;;;;;17.01;71.63;99609.81;4834696;29;9701;-75
2022/10/03 08:21:31;;;;;;;;;7.00;7.00;;;;;17.05;71.35;99616.75;4833481;29;8913;-73
2022/10/03 08:24:26;;;;;;;;;9.20;9.20;;;;;17.01;71.68;99615.06;4832151;29;8882;-72
2022/10/03 08:27:28;;;;;;;;;9.00;8.40;;;;;17.00;71.00;99617.78;4802869;29;9032;-79
2022/10/03 08:30:21;;;;;;;;;6.60;6.60;;;;;17.18;70.85;99616.41;4819068;29;8903;-82
2022/10/03 08:33:24;;;;;;;;;5.40;5.00;;;;;16.84;71.01;99617.28;4794365;29;8876;-78
2022/10/03 08:36:48;;;;;;;;;5.00;5.00;;;;;16.58;65.30;99631.94;4797338;29;8939;-77
2022/10/03 08:39:36;;;;;;;;;5.40;5.40;;;;;16.95;66.47;99625.78;4871569;29;8922;-75
2022/10/03 08:42:34;;;;;;;;;6.20;6.20;;;;;16.98;66.81;99625.72;4950134;28;8893;-81
2022/10/03 08:45:27;;;;;;;;;6.80;5.80;;;;;17.08;66.14;99628.97;5012396;28;8868;-77
2022/10/03 08:48:47;;;;;;;;;5.00;5.00;;;;;16.87;63.03;99648.81;5008234;28;8864;-75
2022/10/03 08:51:53;;;;;;;;;5.00;4.40;;;;;17.00;63.13;99620.41;5027072;28;8862;-75
2022/10/03 08:55:01;;;;;;;;;5.00;5.00;;;;;17.02;61.94;99611.56;5011885;28;8856;-76
2022/10/03 08:58:04;;;;;;;;;4.80;4.80;;;;;17.23;60.96;99617.16;4969685;28;8850;-75
2022/10/03 09:00:51;;;;;;;;;5.80;5.00;;;;;17.25;61.65;99620.63;4908446;29;8901;-77
2022/10/03 09:04:02;;;;;;;;;4.00;4.00;;;;;17.51;60.77;99627.84;4889662;29;8995;-77
2022/10/03 09:07:00;;;;;;;;;6.00;5.00;;;;;17.38;62.42;99637.84;4852287;29;8876;-78
2022/10/03 09:10:22;;;;;;;;;6.80;5.60;;;;;16.85;60.53;99651.50;4792487;29;8920;-75
2022/10/03 09:13:16;;;;;;;;;5.20;4.80;;;;;16.95;61.44;99645.06;4815131;29;8862;-76
2022/10/03 09:16:21;;;;;;;;;6.40;5.60;;;;;17.06;62.02;99642.19;4800088;29;8913;-75
2022/10/03 09:19:26;;;;;;;;;6.60;6.60;;;;;17.54;60.18;99636.53;4814987;29;9035;-76
2022/10/03 09:22:18;;;;;;;;;9.40;7.80;;;;;17.33;60.46;99631.81;4812755;29;9032;-75
2022/10/03 09:25:11;;;;;;;;;7.20;7.00;;;;;17.32;59.47;99640.66;4816606;29;8902;-74
2022/10/03 09:28:08;;;;;;;;;5.60;5.40;;;;;17.50;60.25;99632.25;4802309;29;8882;-79
2022/10/03 09:30:52;;;;;;;;;5.20;5.20;;;;;17.80;61.08;99628.78;4745167;30;8904;-78
2022/10/03 09:33:57;;;;;;;;;5.80;5.80;;;;;17.74;58.51;99635.09;4738671;29;8876;-79
2022/10/03 09:36:59;;;;;;;;;5.20;5.00;;;;;17.87;57.06;99625.09;4764856;29;8965;-80
2022/10/03 09:40:07;;;;;;;;;5.20;5.00;;;;;17.26;59.05;99628.50;4852522;29;8886;-77
2022/10/03 09:42:54;;;;;;;;;4.40;3.60;;;;;17.46;56.78;99604.22;4862924;29;8872;-77
2022/10/03 09:46:06;;;;;;;;;4.80;2.60;;;;;17.32;55.07;99625.69;4871995;29;8871;-75
2022/10/03 09:48:49;;;;;;;;;7.00;5.00;;;;;17.49;56.80;99606.78;4911403;29;8844;-80
2022/10/03 09:51:26;;;;;;;;;9.20;8.40;;;;;18.01;56.52;99607.06;4948704;28;8998;-77
2022/10/03 09:54:42;;;;;;;;;6.60;6.20;;;;;18.29;56.33;99614.13;4966087;28;8965;-78
2022/10/03 09:57:42;;;;;;;;;6.00;6.00;;;;;17.86;56.48;99604.88;4892567;29;9028;-81
2022/10/03 10:00:21;;;;;;;;;6.20;6.20;;;;;17.71;57.27;99609.69;4891881;29;8889;-79
2022/10/03 10:03:27;;;;;;;;;6.20;5.00;;;;;17.65;54.87;99617.75;4929993;29;9631;-80
2022/10/03 10:06:25;;;;;;;;;6.20;5.60;;;;;17.85;55.75;99616.34;4931726;28;8862;-81
2022/10/03 10:09:41;;;;;;;;;5.00;5.00;;;;;17.81;56.36;99614.69;5030971;28;8834;-79
2022/10/03 10:12:51;;;;;;;;;5.00;5.00;;;;;17.83;55.56;99613.72;5047560;28;9778;-78
2022/10/03 10:15:59;;;;;;;;;4.40;4.40;;;;;18.05;55.25;99589.34;5043998;28;8971;-80
2022/10/03 10:19:09;;;;;;;;;5.80;5.80;;;;;18.35;54.12;99594.59;5043505;28;8952;-79
2022/10/03 10:22:07;;;;;;;;;5.60;5.60;;;;;18.51;54.27;99594.06;5032230;28;8852;-76
2022/10/03 10:25:07;;;;;;;;;6.20;6.20;;;;;18.46;52.28;99595.97;4940153;28;9614;-77
2022/10/03 10:28:12;;;;;;;;;3.00;2.80;;;;;18.18;51.42;99597.78;4953132;28;8894;-77
2022/10/03 10:31:20;;;;;;;;;2.20;2.20;;;;;17.92;51.39;99602.94;4924768;28;8949;-82
2022/10/03 10:34:19;;;;;;;;;3.60;3.00;;;;;17.95;51.62;99601.13;4916411;29;8867;-80
2022/10/03 10:37:42;;;;;;;;;6.00;6.00;;;;;18.28;50.98;99594.81;4932108;29;8882;-81
2022/10/03 10:41:05;;;;;;;;;3.40;3.40;;;;;18.38;50.67;99578.69;4805644;29;8995;-81
2022/10/03 10:44:04;;;;;;;;;5.80;5.40;;;;;18.58;49.61;99586.81;4773151;29;8968;-81
2022/10/03 10:47:26;;;;;;;;;3.80;3.80;;;;;18.36;48.05;99580.50;4787219;29;8921;-81
2022/10/03 10:50:28;;;;;;;;;2.00;2.00;;;;;18.42;47.59;99580.31;4771785;29;9203;-80
2022/10/03 10:53:31;;;;;;;;;3.40;3.40;;;;;18.70;46.15;99577.63;4803817;29;8880;-79
2022/10/03 10:56:46;;;;;;;;;2.00;2.00;;;;;18.62;45.28;99559.38;4802697;29;8900;-81
2022/10/03 10:59:52;;;;;;;;;1.00;1.00;;;;;18.25;46.25;99573.78;4800188;29;8979;-77
2022/10/03 11:03:11;;;;;;;;;3.00;2.20;;;;;18.31;46.59;99575.34;4819625;29;8923;-76
2022/10/03 11:06:02;;;;;;;;;2.40;2.40;;;;;18.48;46.63;99580.09;4793814;29;8882;-80
2022/10/03 11:08:57;;;;;;;;;1.20;1.20;;;;;18.35;46.90;99565.56;4892150;29;8918;-77
2022/10/03 11:11:57;;;;;;;;;3.00;3.00;;;;;18.29;46.72;99572.75;4939293;28;8887;-77
2022/10/03 11:15:14;;;;;;;;;3.20;3.00;;;;;18.34;45.88;99558.56;4965198;28;8972;-81
2022/10/03 11:18:07;;;;;;;;;2.80;2.40;;;;;18.24;45.02;99563.25;5062748;28;8921;-79
2022/10/03 11:21:12;;;;;;;;;3.40;3.40;;;;;17.81;46.17;99565.44;4985127;28;8876;-79
2022/10/03 11:24:31;;;;;;;;;3.60;3.00;;;;;18.24;44.92;99574.69;4930208;29;8863;-77
2022/10/03 11:27:41;;;;;;;;;3.80;3.60;;;;;18.00;42.65;99586.88;4860945;29;8888;-78
2022/10/03 11:30:36;;;;;;;;;3.00;1.80;;;;;17.73;42.75;99583.22;4784867;29;8902;-75
2022/10/03 11:33:53;;;;;;;;;2.20;2.20;;;;;17.82;41.90;99582.09;4800293;29;8898;-77
2022/10/03 11:37:00;;;;;;;;;4.20;4.20;;;;;18.00;42.22;99576.31;4736328;29;8902;-78
2022/10/03 11:39:42;;;;;;;;;4.60;3.80;;;;;18.34;41.36;99569.13;4761934;30;8957;-80
2022/10/03 11:42:39;;;;;;;;;2.20;2.20;;;;;18.70;40.79;99567.06;4749134;30;8975;-77
2022/10/03 11:45:24;;;;;;;;;1.60;1.60;;;;;19.07;40.59;99568.44;4764192;30;8899;-80
2022/10/03 11:48:01;;;;;;;;;2.80;2.80;;;;;19.19;40.62;99575.09;4749338;30;8919;-81
2022/10/03 11:50:44;;;;;;;;;4.80;3.00;;;;;19.66;39.95;99573.38;4763648;30;9104;-79
2022/10/03 11:53:19;;;;;;;;;3.40;3.40;;;;;19.62;40.18;99570.88;4800249;29;8880;-81
2022/10/03 11:55:55;;;;;;;;;5.60;5.60;;;;;19.76;40.08;99568.63;4787422;29;8987;-79
2022/10/03 11:58:52;;;;;;;;;4.00;4.00;;;;;19.58;40.49;99574.56;4879828;29;8881;-82
2022/10/03 12:01:37;;;;;;;;;1.80;1.80;;;;;19.22;41.81;99574.97;4928580;28;8875;-78
2022/10/03 12:04:16;;;;;;;;;2.00;2.00;;;;;19.28;41.12;99562.41;4967274;28;8880;-81
2022/10/03 12:09:57;;;;;;;;;2.60;1.40;;;;;18.75;41.47;99573.06;5010097;28;8902;-79
2022/10/03 12:12:34;;;;;;;;;5.80;4.80;;;;;18.96;41.44;99571.50;4987226;28;8986;-81
2022/10/03 12:15:25;;;;;;;;;2.60;2.00;;;;;19.11;41.68;99572.75;5050507;28;8880;-81
2022/10/03 12:18:05;;;;;;;;;5.20;4.00;;;;;19.04;41.97;99574.72;5043484;28;8970;-80
2022/10/03 12:20:49;;;;;;;;;3.00;2.00;;;;;18.73;40.35;99572.22;4994661;28;8962;-80
2022/10/03 12:23:35;;;;;;;;;2.80;2.80;;;;;18.54;40.94;99555.25;5066499;28;8860;-78
2022/10/03 12:26:09;;;;;;;;;2.60;1.60;;;;;18.36;41.11;99560.25;5043848;28;8876;-80
2022/10/03 12:28:43;;;;;;;;;2.60;2.60;;;;;18.67;41.32;99569.78;5063708;28;8874;-80
2022/10/03 12:31:20;;;;;;;;;2.60;2.00;;;;;18.48;41.00;99580.94;5031556;28;8891;-78
2022/10/03 12:33:54;;;;;;;;;4.00;2.80;;;;;18.53;40.64;99564.97;5030836;28;8886;-77
2022/10/03 12:36:33;;;;;;;;;4.60;2.40;;;;;18.40;41.26;99568.94;5010576;28;9678;-77
2022/10/03 12:39:20;;;;;;;;;3.60;3.60;;;;;18.47;41.35;99592.44;5053356;28;8850;-77
2022/10/03 12:42:08;;;;;;;;;3.60;3.00;;;;;18.29;42.38;99583.31;5074283;28;8861;-79
2022/10/03 12:44:49;;;;;;;;;2.00;2.00;;;;;18.17;42.48;99599.56;5104099;28;8843;-80
2022/10/03 12:47:31;;;;;;;;;2.00;2.00;;;;;18.12;42.49;99585.63;5084839;27;8876;-80
2022/10/03 12:50:37;;;;;;;;;2.00;2.00;;;;;18.13;42.35;99592.66;5089161;28;8908;-77
2022/10/03 12:53:34;;;;;;;;;2.00;2.00;;;;;17.89;43.00;99584.53;5102925;27;8842;-76
2022/10/03 12:56:11;;;;;;;;;1.00;1.00;;;;;17.99;42.97;99579.00;5026076;28;8878;-80
2022/10/03 12:58:50;;;;;;;;;1.60;1.60;;;;;18.09;42.42;99583.06;5005426;28;8965;-80
2022/10/03 13:01:28;;;;;;;;;4.00;3.00;;;;;18.11;42.51;99590.06;5009111;28;8998;-80
2022/10/03 13:04:02;;;;;;;;;2.40;2.00;;;;;17.93;42.54;99580.91;5024944;28;9583;-78
2022/10/03 13:06:39;;;;;;;;;2.80;2.80;;;;;17.90;42.43;99574.84;5005851;28;8918;-76
2022/10/03 13:09:52;;;;;;;;;2.20;2.20;;;;;17.82;43.31;99566.28;5025618;28;8856;-78
2022/10/03 13:12:34;;;;;;;;;3.20;3.00;;;;;18.10;42.68;99579.53;4983773;28;8966;-78
2022/10/03 13:15:43;;;;;;;;;3.00;3.00;;;;;18.06;42.21;99591.97;5023805;28;8992;-78
2022/10/03 13:18:35;;;;;;;;;1.80;1.80;;;;;18.10;42.35;99595.38;5040331;28;8880;-81
2022/10/03 13:21:10;;;;;;;;;4.00;4.00;;;;;18.26;42.37;99599.28;5023205;28;8880;-81
2022/10/03 13:24:06;;;;;;;;;2.60;2.60;;;;;18.31;42.64;99570.94;5022757;28;8868;-80
2022/10/03 13:26:50;;;;;;;;;4.20;3.00;;;;;18.53;42.56;99572.91;5028407;28;8870;-82
2022/10/03 13:29:25;;;;;;;;;2.60;2.60;;;;;18.71;42.29;99560.84;5011701;28;10307;-82
2022/10/03 13:32:25;;;;;;;;;3.60;3.60;;;;;18.81;42.42;99575.50;5012783;28;8852;-84
2022/10/03 13:38:06;;;;;;;;;3.40;3.40;;;;;18.39;43.76;99573.34;5029764;28;8886;-82
2022/10/03 13:40:42;;;;;;;;;3.00;2.00;;;;;18.23;44.16;99572.09;4987257;28;8882;-82
2022/10/03 13:43:18;;;;;;;;;3.00;3.00;;;;;18.13;44.70;99571.53;4981711;28;8993;-85
2022/10/03 13:45:53;;;;;;;;;3.20;3.20;;;;;17.98;45.34;99577.28;4981273;28;8886;-84
2022/10/03 13:48:26;;;;;;;;;3.00;2.40;;;;;17.71;45.66;99587.69;4993478;28;8994;-81
2022/10/03 13:51:01;;;;;;;;;4.40;3.20;;;;;17.93;44.12;99588.81;4975894;28;8853;-82
2022/10/03 13:53:52;;;;;;;;;4.40;2.60;;;;;17.46;44.52;99608.63;4984196;28;8872;-78
2022/10/03 13:56:43;;;;;;;;;2.00;2.00;;;;;17.50;43.06;99581.25;4951743;28;8846;-77
2022/10/03 13:59:39;;;;;;;;;7.00;6.00;;;;;17.62;43.30;99580.06;4858979;29;8901;-78
2022/10/03 14:02:32;;;;;;;;;3.00;2.00;;;;;17.53;43.45;99592.59;4859239;29;9139;-79
2022/10/03 14:05:18;;;;;;;;;2.60;2.60;;;;;17.82;42.92;99571.56;4859690;29;9097;-80